createdAt,value
2019-01-16T00:01:41.208Z,22.06
2019-01-16T00:05:10.626Z,22.08
2019-01-16T00:08:25.275Z,22.09
2019-01-16T00:11:47.731Z,22.09
2019-01-16T00:15:05.568Z,22.11
2019-01-16T00:18:46.192Z,22.13
2019-01-16T00:22:09.372Z,22.13
2019-01-16T00:25:40.651Z,22.14
2019-01-16T00:29:09.848Z,22.14
2019-01-16T00:32:21.514Z,22.15
2019-01-16T00:35:32.937Z,22.15
2019-01-16T00:38:50.352Z,22.17
2019-01-16T00:42:16.070Z,22.18
2019-01-16T00:45:47.839Z,22.18
2019-01-16T00:49:14.187Z,22.20
2019-01-16T00:52:30.392Z,22.21
2019-01-16T00:55:47.707Z,22.21
2019-01-16T00:59:16.412Z,22.20
2019-01-16T01:02:35.888Z,22.21
2019-01-16T01:05:59.371Z,22.22
2019-01-16T01:09:11.762Z,22.23
2019-01-16T01:12:42.076Z,22.26
2019-01-16T01:16:10.436Z,22.28
2019-01-16T01:19:43.558Z,22.28
2019-01-16T01:22:54.631Z,22.29
2019-01-16T01:26:13.602Z,22.30
2019-01-16T01:29:34.709Z,22.32
2019-01-16T01:32:56.133Z,22.33
2019-01-16T01:36:17.250Z,22.35
2019-01-16T01:39:38.624Z,22.36
2019-01-16T01:42:51.900Z,22.36
2019-01-16T01:46:20.654Z,22.36
2019-01-16T01:49:42.823Z,22.37
2019-01-16T01:53:06.623Z,22.39
2019-01-16T01:56:38.171Z,22.39
2019-01-16T01:59:52.344Z,22.41
2019-01-16T02:03:08.300Z,22.41
2019-01-16T02:06:30.861Z,22.42
2019-01-16T02:10:01.598Z,22.42
2019-01-16T02:13:22.917Z,22.44
2019-01-16T02:16:44.746Z,22.44
2019-01-16T02:20:06.415Z,22.44
2019-01-16T02:23:39.968Z,22.45
2019-01-16T02:27:01.189Z,22.45
2019-01-16T02:30:28.821Z,22.46
2019-01-16T02:33:51.058Z,22.48
2019-01-16T02:37:12.354Z,22.49
2019-01-16T02:40:33.765Z,22.49
2019-01-16T02:44:11.341Z,22.51
2019-01-16T02:47:34.694Z,22.51
2019-01-16T02:50:55.610Z,22.53
2019-01-16T02:54:15.173Z,22.53
2019-01-16T02:57:34.058Z,22.52
2019-01-16T03:00:48.962Z,22.53
2019-01-16T03:04:14.929Z,22.55
2019-01-16T03:07:49.358Z,22.55
2019-01-16T03:11:14.946Z,22.56
2019-01-16T03:14:29.233Z,22.58
2019-01-16T03:17:49.950Z,22.57
2019-01-16T03:21:03.786Z,22.58
2019-01-16T03:24:44.618Z,22.59
2019-01-16T03:28:11.605Z,22.60
2019-01-16T03:31:34.566Z,22.60
2019-01-16T03:34:46.973Z,22.61
2019-01-16T03:38:01.734Z,22.60
2019-01-16T03:41:18.411Z,22.61
2019-01-16T03:44:37.140Z,22.63
2019-01-16T03:48:00.885Z,22.64
2019-01-16T03:51:23.512Z,22.65
2019-01-16T03:54:44.860Z,22.66
2019-01-16T03:58:01.766Z,22.69
2019-01-16T04:01:33.430Z,22.67
2019-01-16T04:04:58.985Z,22.70
2019-01-16T04:08:23.745Z,22.70
2019-01-16T04:11:44.853Z,22.71
2019-01-16T04:14:59.720Z,22.72
2019-01-16T04:18:21.532Z,22.72
2019-01-16T04:21:43.172Z,22.72
2019-01-16T04:25:10.668Z,22.74
2019-01-16T04:28:32.121Z,22.74
2019-01-16T04:31:54.816Z,22.76
2019-01-16T04:35:10.806Z,22.77
2019-01-16T04:38:48.476Z,22.76
2019-01-16T04:42:17.165Z,22.79
2019-01-16T04:45:31.046Z,22.79
2019-01-16T04:49:02.888Z,22.80
2019-01-16T04:52:24.210Z,22.80
2019-01-16T04:55:45.443Z,22.81
2019-01-16T04:59:26.198Z,22.83
2019-01-16T05:02:53.077Z,22.85
2019-01-16T05:06:04.664Z,22.85
2019-01-16T05:09:26.196Z,22.85
2019-01-16T05:13:03.985Z,22.85
2019-01-16T05:16:25.531Z,22.86
2019-01-16T05:19:53.789Z,22.87
2019-01-16T05:23:10.725Z,22.89
2019-01-16T05:26:33.275Z,22.89
2019-01-16T05:30:10.957Z,22.89
2019-01-16T05:33:24.191Z,22.90
2019-01-16T05:36:45.509Z,22.90
2019-01-16T05:40:07.132Z,22.91
2019-01-16T05:43:39.570Z,22.93
2019-01-16T05:47:11.384Z,22.93
2019-01-16T05:50:33.061Z,22.93
2019-01-16T05:53:51.565Z,22.94
2019-01-16T05:57:05.918Z,22.96
2019-01-16T06:00:28.452Z,22.98
2019-01-16T06:03:44.150Z,22.98
2019-01-16T06:07:11.817Z,22.99
2019-01-16T06:10:27.080Z,22.99
2019-01-16T06:13:41.244Z,23.00
2019-01-16T06:16:57.035Z,23.01
2019-01-16T06:20:18.152Z,23.01
2019-01-16T06:23:37.003Z,23.01
2019-01-16T06:27:29.372Z,23.02
2019-01-16T06:30:41.648Z,23.02
2019-01-16T06:34:04.149Z,23.03
2019-01-16T06:37:25.547Z,23.05
2019-01-16T06:40:48.959Z,23.06
2019-01-16T06:44:01.720Z,23.07
2019-01-16T06:47:17.185Z,23.08
2019-01-16T06:50:50.994Z,23.08
2019-01-16T06:54:03.919Z,23.09
2019-01-16T06:57:35.828Z,23.11
2019-01-16T07:00:48.705Z,23.11
2019-01-16T07:04:22.216Z,23.11
2019-01-16T07:07:55.609Z,23.11
2019-01-16T07:11:22.662Z,23.13
2019-01-16T07:14:37.741Z,23.14
2019-01-16T07:18:09.775Z,23.15
2019-01-16T07:21:38.355Z,23.15
2019-01-16T07:25:05.037Z,23.16
2019-01-16T07:28:27.480Z,23.17
2019-01-16T07:31:58.417Z,23.16
2019-01-16T07:35:16.265Z,23.19
2019-01-16T07:38:31.397Z,23.19
2019-01-16T07:41:45.994Z,23.19
2019-01-16T07:45:07.617Z,23.21
2019-01-16T07:48:30.180Z,23.20
2019-01-16T07:51:55.959Z,23.22
2019-01-16T07:55:17.327Z,23.23
2019-01-16T07:58:43.449Z,23.24
2019-01-16T08:02:11.555Z,23.25
2019-01-16T08:05:32.488Z,22.97
2019-01-16T08:08:42.432Z,22.90
2019-01-16T08:11:58.387Z,22.91
2019-01-16T08:15:24.256Z,22.93
2019-01-16T08:19:05.234Z,22.96
2019-01-16T08:22:27.834Z,22.97
2019-01-16T08:25:38.473Z,22.98
2019-01-16T08:29:01.987Z,22.99
2019-01-16T08:32:20.419Z,22.99
2019-01-16T08:35:55.082Z,22.97
2019-01-16T08:39:26.673Z,22.96
2019-01-16T08:42:47.813Z,22.95
2019-01-16T08:46:04.221Z,22.92
2019-01-16T08:49:25.255Z,22.90
2019-01-16T08:52:50.747Z,22.90
2019-01-16T08:56:10.700Z,22.88
2019-01-16T08:59:31.976Z,22.85
2019-01-16T09:02:55.279Z,22.85
2019-01-16T09:06:30.100Z,22.82
2019-01-16T09:09:54.056Z,22.80
2019-01-16T09:13:32.103Z,22.80
2019-01-16T09:16:46.694Z,22.78
2019-01-16T09:20:08.060Z,22.78
2019-01-16T09:23:39.942Z,22.76
2019-01-16T09:27:01.257Z,22.75
2019-01-16T09:30:30.775Z,22.73
2019-01-16T09:33:52.354Z,22.69
2019-01-16T09:37:24.136Z,22.69
2019-01-16T09:40:40.304Z,22.66
2019-01-16T09:44:03.104Z,22.64
2019-01-16T09:47:19.982Z,22.59
2019-01-16T09:50:47.901Z,22.58
2019-01-16T09:54:11.260Z,22.57
2019-01-16T09:57:42.958Z,22.55
2019-01-16T10:01:05.344Z,22.51
2019-01-16T10:04:22.565Z,22.50
2019-01-16T10:07:35.895Z,22.48
2019-01-16T10:10:57.315Z,22.48
2019-01-16T10:14:10.969Z,22.46
2019-01-16T10:17:38.807Z,22.46
2019-01-16T10:21:19.426Z,22.44
2019-01-16T10:24:42.606Z,22.43
2019-01-16T10:28:19.537Z,22.41
2019-01-16T10:31:40.550Z,22.41
2019-01-16T10:35:08.918Z,22.39
2019-01-16T10:38:34.523Z,22.39
2019-01-16T10:41:57.979Z,22.39
2019-01-16T10:45:18.842Z,22.40
2019-01-16T10:48:32.867Z,22.39
2019-01-16T10:51:51.447Z,22.38
2019-01-16T10:55:12.687Z,22.39
2019-01-16T10:58:29.152Z,22.39
2019-01-16T11:01:41.147Z,22.35
2019-01-16T11:05:00.628Z,22.36
2019-01-16T11:08:17.741Z,22.35
2019-01-16T11:11:46.752Z,22.34
2019-01-16T11:15:08.746Z,22.33
2019-01-16T11:18:30.376Z,22.30
2019-01-16T11:21:59.109Z,22.29
2019-01-16T11:25:33.827Z,22.25
2019-01-16T11:29:00.568Z,22.23
2019-01-16T11:32:29.098Z,22.21
2019-01-16T11:35:57.454Z,22.21
2019-01-16T11:39:18.986Z,22.20
2019-01-16T11:42:42.366Z,22.20
2019-01-16T11:46:04.994Z,22.18
2019-01-16T11:49:26.720Z,22.18
2019-01-16T11:52:52.067Z,22.17
2019-01-16T11:56:05.371Z,22.15
2019-01-16T11:59:18.897Z,22.14
2019-01-16T12:02:38.522Z,22.13
2019-01-16T12:06:04.453Z,22.12
2019-01-16T12:09:33.016Z,22.11
2019-01-16T12:12:46.147Z,22.09
2019-01-16T12:15:59.351Z,22.08
2019-01-16T12:19:12.949Z,22.06
2019-01-16T12:22:31.343Z,22.06
2019-01-16T12:25:52.875Z,22.05
2019-01-16T12:29:14.801Z,22.04
2019-01-16T12:32:30.592Z,22.02
2019-01-16T12:35:53.919Z,21.99
2019-01-16T12:39:14.026Z,22.01
2019-01-16T12:42:41.720Z,21.99
2019-01-16T12:45:52.554Z,21.97
2019-01-16T12:49:21.302Z,21.94
2019-01-16T12:52:54.806Z,21.94
2019-01-16T12:56:18.265Z,21.94
2019-01-16T12:59:44.607Z,21.94
2019-01-16T13:03:01.301Z,21.92
2019-01-16T13:06:34.264Z,21.91
2019-01-16T13:09:46.258Z,21.92
2019-01-16T13:13:11.921Z,21.91
2019-01-16T13:16:34.801Z,21.90
2019-01-16T13:19:54.739Z,21.89
2019-01-16T13:23:16.209Z,21.87
2019-01-16T13:26:41.587Z,21.87
2019-01-16T13:30:02.408Z,21.87
2019-01-16T13:33:26.802Z,21.85
2019-01-16T13:36:41.141Z,21.85
2019-01-16T13:40:02.110Z,21.84
2019-01-16T13:43:42.956Z,21.84
2019-01-16T13:47:05.604Z,21.83
2019-01-16T13:50:32.777Z,21.80
2019-01-16T13:53:55.159Z,21.82
2019-01-16T13:57:26.929Z,21.80
2019-01-16T14:00:52.571Z,21.80
2019-01-16T14:04:18.993Z,21.79
2019-01-16T14:07:46.528Z,21.78
2019-01-16T14:11:00.216Z,21.76
2019-01-16T14:14:15.903Z,21.76
2019-01-16T14:17:36.312Z,21.76
2019-01-16T14:20:59.568Z,21.77
2019-01-16T14:24:31.506Z,21.74
2019-01-16T14:27:51.924Z,21.74
2019-01-16T14:31:08.531Z,21.74
2019-01-16T14:34:35.165Z,21.71
2019-01-16T14:38:03.768Z,21.69
2019-01-16T14:41:37.366Z,21.68
2019-01-16T14:44:48.962Z,21.67
2019-01-16T14:48:10.206Z,21.65
2019-01-16T14:51:23.003Z,21.66
2019-01-16T14:54:34.451Z,21.62
2019-01-16T14:57:50.843Z,21.61
2019-01-16T15:01:12.429Z,21.58
2019-01-16T15:04:43.891Z,21.59
2019-01-16T15:08:00.695Z,21.59
2019-01-16T15:11:11.525Z,21.60
2019-01-16T15:14:32.978Z,21.60
2019-01-16T15:17:55.712Z,21.58
2019-01-16T15:21:19.916Z,21.58
2019-01-16T15:24:31.908Z,21.59
2019-01-16T15:27:51.648Z,21.57
2019-01-16T15:31:09.131Z,21.57
2019-01-16T15:34:30.603Z,21.58
2019-01-16T15:37:51.241Z,21.59
2019-01-16T15:41:08.169Z,21.59
2019-01-16T15:44:33.057Z,21.58
2019-01-16T15:47:54.500Z,21.57
2019-01-16T15:51:17.333Z,21.56
2019-01-16T15:54:38.367Z,21.57
2019-01-16T15:58:16.007Z,21.55
2019-01-16T16:01:30.381Z,21.56
2019-01-16T16:04:44.398Z,21.55
2019-01-16T16:08:10.313Z,21.56
2019-01-16T16:11:34.712Z,21.54
2019-01-16T16:15:01.058Z,21.53
2019-01-16T16:18:26.764Z,21.52
2019-01-16T16:21:39.700Z,21.51
2019-01-16T16:25:01.214Z,21.68
2019-01-16T16:28:17.694Z,21.87
2019-01-16T16:31:36.137Z,21.94
2019-01-16T16:34:57.546Z,21.98
2019-01-16T16:38:25.971Z,22.03
2019-01-16T16:41:47.650Z,22.09
2019-01-16T16:45:03.048Z,22.16
2019-01-16T16:48:25.396Z,22.21
2019-01-16T16:51:41.767Z,22.22
2019-01-16T16:55:09.089Z,22.26
2019-01-16T16:58:30.354Z,22.29
2019-01-16T17:01:56.135Z,22.35
2019-01-16T17:05:17.519Z,22.34
2019-01-16T17:08:45.246Z,22.27
2019-01-16T17:12:10.483Z,22.23
2019-01-16T17:15:32.943Z,22.22
2019-01-16T17:19:03.087Z,22.19
2019-01-16T17:22:32.425Z,22.17
2019-01-16T17:25:44.084Z,22.13
2019-01-16T17:29:05.547Z,22.13
2019-01-16T17:32:26.879Z,22.11
2019-01-16T17:35:36.791Z,22.09
2019-01-16T17:39:02.193Z,22.07
2019-01-16T17:42:23.457Z,22.06
2019-01-16T17:45:56.323Z,22.05
2019-01-16T17:49:13.822Z,22.04
2019-01-16T17:52:51.858Z,22.03
2019-01-16T17:56:03.611Z,22.01
2019-01-16T17:59:26.363Z,21.99
2019-01-16T18:02:47.934Z,21.96
2019-01-16T18:06:17.620Z,21.96
2019-01-16T18:09:29.348Z,21.94
2019-01-16T18:12:59.786Z,21.95
2019-01-16T18:16:22.078Z,21.95
2019-01-16T18:19:54.292Z,21.97
2019-01-16T18:23:08.923Z,21.98
2019-01-16T18:26:30.047Z,21.99
2019-01-16T18:29:49.002Z,22.01
2019-01-16T18:33:11.120Z,22.02
2019-01-16T18:36:40.772Z,22.01
2019-01-16T18:40:02.226Z,22.02
2019-01-16T18:43:23.746Z,22.02
2019-01-16T18:46:44.458Z,22.02
2019-01-16T18:50:01.309Z,22.02
2019-01-16T18:53:16.334Z,22.04
2019-01-16T18:56:39.341Z,22.04
2019-01-16T19:00:05.581Z,22.04
2019-01-16T19:03:40.280Z,22.05
2019-01-16T19:07:05.746Z,22.05
2019-01-16T19:10:20.429Z,22.05
2019-01-16T19:13:45.990Z,22.06
2019-01-16T19:17:17.366Z,22.05
2019-01-16T19:20:34.793Z,22.07
2019-01-16T19:24:04.665Z,22.07
2019-01-16T19:27:18.372Z,22.08
2019-01-16T19:30:43.640Z,22.08
2019-01-16T19:33:53.414Z,22.08
2019-01-16T19:37:06.080Z,22.10
2019-01-16T19:40:29.995Z,22.10
2019-01-16T19:44:04.729Z,22.10
2019-01-16T19:47:20.283Z,22.11
2019-01-16T19:50:38.991Z,22.10
2019-01-16T19:53:55.190Z,22.11
2019-01-16T19:57:26.734Z,22.11
2019-01-16T20:00:42.942Z,22.10
2019-01-16T20:04:08.150Z,22.11
2019-01-16T20:07:27.211Z,22.12
2019-01-16T20:10:49.985Z,22.12
2019-01-16T20:14:11.280Z,22.12
2019-01-16T20:17:28.829Z,22.12
2019-01-16T20:20:58.314Z,22.12
2019-01-16T20:24:19.363Z,22.13
2019-01-16T20:27:45.000Z,22.13
2019-01-16T20:31:06.201Z,22.13
2019-01-16T20:34:27.671Z,22.15
2019-01-16T20:37:51.154Z,22.12
2019-01-16T20:41:12.439Z,22.12
2019-01-16T20:44:34.419Z,22.09
2019-01-16T20:47:58.497Z,22.08
2019-01-16T20:51:16.799Z,22.05
2019-01-16T20:54:38.164Z,22.04
2019-01-16T20:58:03.838Z,22.02
2019-01-16T21:01:25.695Z,22.02
2019-01-16T21:04:51.298Z,22.01
2019-01-16T21:08:20.048Z,21.99
2019-01-16T21:11:37.042Z,21.96
2019-01-16T21:14:51.622Z,21.95
2019-01-16T21:18:16.316Z,21.93
2019-01-16T21:21:54.332Z,21.91
2019-01-16T21:25:05.508Z,21.89
2019-01-16T21:28:34.594Z,21.87
2019-01-16T21:31:51.539Z,21.86
2019-01-16T21:35:03.824Z,21.84
2019-01-16T21:38:15.202Z,21.82
2019-01-16T21:41:32.770Z,21.81
2019-01-16T21:45:02.455Z,21.79
2019-01-16T21:48:16.903Z,21.77
2019-01-16T21:51:46.302Z,21.76
2019-01-16T21:55:18.941Z,21.77
2019-01-16T21:58:38.677Z,21.74
2019-01-16T22:01:57.711Z,21.72
2019-01-16T22:05:26.078Z,21.71
2019-01-16T22:08:57.480Z,21.69
2019-01-16T22:12:22.989Z,21.69
2019-01-16T22:15:37.796Z,21.68
2019-01-16T22:19:18.677Z,21.67
2019-01-16T22:22:42.526Z,21.64
2019-01-16T22:25:58.110Z,21.65
2019-01-16T22:29:19.460Z,21.62
2019-01-16T22:32:40.634Z,21.61
2019-01-16T22:35:57.629Z,21.60
2019-01-16T22:39:29.423Z,21.59
2019-01-16T22:43:07.270Z,21.59
2019-01-16T22:46:28.779Z,21.58
2019-01-16T22:49:50.220Z,21.56
2019-01-16T22:53:18.569Z,21.55
2019-01-16T22:56:39.817Z,21.54
2019-01-16T23:00:01.081Z,21.52
2019-01-16T23:03:23.753Z,21.52
2019-01-16T23:06:41.686Z,21.52
2019-01-16T23:10:07.382Z,21.49
2019-01-16T23:13:29.537Z,21.48
2019-01-16T23:16:57.212Z,21.49
2019-01-16T23:20:15.046Z,21.48
2019-01-16T23:23:35.581Z,21.47
2019-01-16T23:26:51.032Z,21.44
2019-01-16T23:30:12.281Z,21.43
2019-01-16T23:33:38.060Z,21.44
2019-01-16T23:36:58.666Z,21.42
2019-01-16T23:40:09.953Z,21.42
2019-01-16T23:43:36.625Z,21.40
2019-01-16T23:46:50.946Z,21.40
2019-01-16T23:50:09.429Z,21.39
2019-01-16T23:53:36.135Z,21.39
2019-01-16T23:56:58.701Z,21.38
